Time;durP1;ratioP1;P1;durP2;ratioP2;P2;SDS_P1;SDS_P2;PMS_P1;PMS_P2;Temp;Humidity;BMP_temperature;BMP_pressure;BME280_temperature;BME280_humidity;BME280_pressure;Samples;Min_cycle;Max_cycle;Signal;HPM_P1;HPM_P2
2022/03/25 00:00:27;;;;;;;1999.90;999.90;;;;;;;6.03;52.82;102380.47;15494818;28;20100;-59
2022/03/25 00:08:10;;;;;;;;;;;;;;;;;;;;;
2022/03/25 00:15:49;;;;;;;1999.90;999.90;;;;;;;5.84;52.61;102384.72;15497625;28;20061;-58
2022/03/25 00:23:21;;;;;;;1999.90;999.90;;;;;;;5.70;53.73;102369.56;15495966;28;20074;-57
2022/03/25 00:30:59;;;;;;;1999.90;999.90;;;;;;;5.59;53.56;102373.34;15474843;28;20042;-56
2022/03/25 00:38:35;;;;;;;1999.90;999.90;;;;;;;5.44;53.71;102369.31;15490445;28;20043;-58
2022/03/25 00:46:30;;;;;;;1999.90;999.90;;;;;;;5.46;52.83;102358.81;15480178;28;20043;-59
2022/03/25 00:54:05;;;;;;;1999.90;999.90;;;;;;;5.34;53.09;102360.88;15484909;28;20133;-59
2022/03/25 01:02:05;;;;;;;1999.90;999.90;;;;;;;5.35;53.12;102351.47;15485428;28;20057;-56
2022/03/25 01:09:46;;;;;;;1999.90;999.90;;;;;;;4.98;53.65;102353.19;15473249;28;20141;-56
2022/03/25 01:17:20;;;;;;;1999.90;999.90;;;;;;;5.03;53.28;102353.28;15477218;28;20049;-56
2022/03/25 01:25:02;;;;;;;1999.90;999.90;;;;;;;5.02;53.26;102346.06;15509328;28;20503;-57
2022/03/25 01:32:36;;;;;;;1999.90;999.90;;;;;;;4.93;54.30;102340.13;15467536;28;20050;-59
2022/03/25 01:40:29;;;;;;;1999.90;999.90;;;;;;;4.93;53.40;102343.72;15466658;28;20058;-58
2022/03/25 01:48:35;;;;;;;1999.90;999.90;;;;;;;4.84;53.80;102341.66;15478526;28;20050;-59
2022/03/25 01:56:07;;;;;;;1999.90;999.90;;;;;;;4.58;54.58;102340.44;15458315;28;20096;-57
2022/03/25 02:03:41;;;;;;;1999.90;999.90;;;;;;;4.49;54.06;102345.59;15512623;28;20050;-58
2022/03/25 02:11:13;;;;;;;1999.90;999.90;;;;;;;4.30;55.54;102350.53;15503020;28;20491;-59
2022/03/25 02:18:50;;;;;;;1999.90;999.90;;;;;;;4.28;56.02;102346.34;15502116;28;20117;-62
2022/03/25 02:26:24;;;;;;;1999.90;999.90;;;;;;;4.34;55.45;102340.63;15519614;28;20042;-57
2022/03/25 02:34:08;;;;;;;1999.90;999.90;;;;;;;4.23;55.19;102349.00;15495532;28;20050;-58
2022/03/25 02:41:42;;;;;;;1999.90;999.90;;;;;;;4.02;56.84;102342.31;15476680;28;20068;-60
2022/03/25 02:49:22;;;;;;;1999.90;999.90;;;;;;;4.19;56.16;102340.41;15490828;28;20042;-60
2022/03/25 02:57:08;;;;;;;1999.90;999.90;;;;;;;3.90;56.93;102344.31;15483933;28;20575;-58
2022/03/25 03:04:46;;;;;;;1999.90;999.90;;;;;;;3.90;57.17;102344.31;15486577;28;20047;-60
2022/03/25 03:12:22;;;;;;;1999.90;999.90;;;;;;;3.67;57.15;102346.09;15500355;28;20109;-59
2022/03/25 03:20:00;;;;;;;1999.90;999.90;;;;;;;3.67;58.06;102346.09;15500155;28;20068;-60
2022/03/25 03:27:42;;;;;;;1999.90;999.90;;;;;;;3.44;58.77;102348.97;15481859;28;20463;-59
2022/03/25 03:35:26;;;;;;;1999.90;999.90;;;;;;;3.56;58.21;102343.41;15479530;28;20046;-58
2022/03/25 03:43:04;;;;;;;1999.90;999.90;;;;;;;3.80;58.17;102349.63;15513729;28;20050;-57
2022/03/25 03:50:37;;;;;;;1999.90;999.90;;;;;;;3.57;58.37;102351.44;15498252;28;20074;-58
2022/03/25 03:58:23;;;;;;;1999.90;999.90;;;;;;;3.56;58.58;102352.53;15497358;28;20070;-57
2022/03/25 04:06:25;;;;;;;1999.90;999.90;;;;;;;3.43;58.65;102350.03;15497238;28;20076;-59
2022/03/25 04:14:26;;;;;;;1999.90;999.90;;;;;;;3.53;58.92;102360.44;15483175;28;20108;-56
2022/03/25 04:22:12;;;;;;;1999.90;999.90;;;;;;;3.66;58.35;102354.63;15465241;28;20481;-58
2022/03/25 04:29:48;;;;;;;1999.90;999.90;;;;;;;3.62;58.71;102359.78;15480433;28;20399;-58
2022/03/25 04:37:34;;;;;;;1999.90;999.90;;;;;;;3.64;57.98;102370.59;15465347;28;20046;-60
2022/03/25 04:45:31;;;;;;;1999.90;999.90;;;;;;;3.28;59.42;102369.88;15474594;28;20137;-59
2022/03/25 04:53:21;;;;;;;1999.90;999.90;;;;;;;3.30;59.94;102375.16;15462019;28;20487;-56
2022/03/25 05:00:55;;;;;;;1999.90;999.90;;;;;;;3.44;59.02;102371.88;15496364;28;20491;-58
2022/03/25 05:08:27;;;;;;;1999.90;999.90;;;;;;;3.38;59.85;102375.63;15492039;28;20124;-59
2022/03/25 05:16:01;;;;;;;1999.90;999.90;;;;;;;3.48;59.46;102374.97;15493486;28;20042;-56
2022/03/25 05:23:33;;;;;;;1999.90;999.90;;;;;;;3.61;59.59;102390.41;15472960;28;20050;-58
2022/03/25 05:31:15;;;;;;;1999.90;999.90;;;;;;;3.90;58.31;102385.72;15492731;28;20047;-59
2022/03/25 05:38:48;;;;;;;1999.90;999.90;;;;;;;3.88;57.72;102388.75;15501846;28;20046;-58
2022/03/25 05:46:22;;;;;;;1999.90;999.90;;;;;;;4.21;58.35;102392.66;15503913;28;20484;-61
2022/03/25 05:54:08;;;;;;;1999.90;999.90;;;;;;;4.42;57.94;102402.97;15489739;28;20500;-62
2022/03/25 06:01:48;;;;;;;1999.90;999.90;;;;;;;4.74;57.42;102403.19;15501633;28;20045;-58
2022/03/25 06:09:26;;;;;;;1999.90;999.90;;;;;;;4.97;56.47;102404.06;15501640;28;20050;-56
2022/03/25 06:17:12;;;;;;;1999.90;999.90;;;;;;;5.45;55.97;102401.44;15516625;28;20202;-57
2022/03/25 06:24:55;;;;;;;1999.90;999.90;;;;;;;5.95;55.07;102411.47;15502413;28;20121;-59
2022/03/25 06:32:28;;;;;;;1999.90;999.90;;;;;;;6.47;53.44;102410.00;15491252;28;20130;-60
2022/03/25 06:40:01;;;;;;;1999.90;999.90;;;;;;;7.31;52.54;102426.69;15464564;28;20046;-59
2022/03/25 06:47:35;;;;;;;1999.90;999.90;;;;;;;8.32;52.65;102433.66;15491724;28;20042;-59
2022/03/25 06:55:08;;;;;;;1999.90;999.90;;;;;;;9.49;49.11;102439.16;15495658;28;20039;-60
2022/03/25 07:03:05;;;;;;;1999.90;999.90;;;;;;;11.18;45.55;102445.28;15463509;28;20047;-59
2022/03/25 07:10:48;;;;;;;1999.90;999.90;;;;;;;12.09;44.77;102455.38;15485671;28;20050;-57
2022/03/25 07:18:38;;;;;;;1999.90;999.90;;;;;;;12.50;43.30;102457.53;15499387;28;20492;-60
2022/03/25 07:26:10;;;;;;;1999.90;999.90;;;;;;;13.31;42.36;102468.50;15469236;28;20137;-60
2022/03/25 07:33:43;;;;;;;1999.90;999.90;;;;;;;13.16;42.67;102473.25;15497483;28;20050;-60
2022/03/25 07:41:19;;;;;;;1999.90;999.90;;;;;;;15.23;39.13;102482.13;15483840;28;20484;-59
2022/03/25 07:48:53;;;;;;;1999.90;999.90;;;;;;;16.50;37.67;102483.22;15455647;28;20582;-60
2022/03/25 07:56:26;;;;;;;1999.90;999.90;;;;;;;17.34;36.11;102491.09;15457369;28;20397;-61
2022/03/25 08:04:00;;;;;;;1999.90;999.90;;;;;;;17.81;35.04;102496.75;15481594;28;20046;-61
2022/03/25 08:11:32;;;;;;;1999.90;999.90;;;;;;;17.51;34.48;102501.50;15496011;28;20062;-61
2022/03/25 08:19:15;;;;;;;1999.90;999.90;;;;;;;18.82;32.76;102508.88;15511791;28;20193;-61
2022/03/25 08:34:38;;;;;;;1999.90;999.90;;;;;;;19.24;31.89;102512.47;15496179;28;20145;-61
2022/03/25 08:42:12;;;;;;;157.45;145.60;;;;;;;19.74;32.34;102522.75;15479203;28;20042;-60
2022/03/25 08:49:46;;;;;;;1093.85;587.28;;;;;;;21.10;30.99;102521.38;15450877;28;20050;-60
2022/03/25 08:57:18;;;;;;;1999.90;999.90;;;;;;;20.98;30.12;102517.41;15493478;28;20543;-60
2022/03/25 09:04:53;;;;;;;1999.90;999.90;;;;;;;21.48;30.48;102523.69;15440343;28;20404;-60
2022/03/25 09:12:25;;;;;;;638.83;378.10;;;;;;;22.37;28.87;102532.44;15444465;28;20047;-60
2022/03/25 09:19:58;;;;;;;155.43;143.40;;;;;;;23.09;28.06;102536.91;15474584;28;20041;-60
2022/03/25 09:27:31;;;;;;;155.43;143.38;;;;;;;22.90;28.53;102532.84;15503854;28;20073;-62
2022/03/25 09:35:13;;;;;;;99.30;89.47;;;;;;;22.74;28.05;102532.06;15504135;28;20566;-62
2022/03/25 09:42:46;;;;;;;147.75;135.55;;;;;;;23.38;28.39;102536.28;15505015;28;20047;-60
2022/03/25 09:50:23;;;;;;;73.15;65.47;;;;;;;23.51;27.78;102536.91;15502700;28;20066;-60
2022/03/25 09:57:55;;;;;;;74.28;65.95;;;;;;;23.16;28.33;102526.47;15500097;28;20039;-62
2022/03/25 10:05:31;;;;;;;107.93;98.20;;;;;;;24.21;28.52;102536.53;15488785;28;20144;-59
2022/03/25 10:13:07;;;;;;;97.68;89.07;;;;;;;24.43;27.37;102535.69;15498120;28;20414;-59
2022/03/25 10:20:42;;;;;;;63.55;51.55;;;;;;;24.67;28.08;102536.41;15500153;28;20038;-60
2022/03/25 10:28:21;;;;;;;57.47;47.08;;;;;;;25.26;26.94;102529.03;15499983;28;20525;-59
2022/03/25 10:35:58;;;;;;;58.63;44.35;;;;;;;26.42;26.13;102524.78;15501119;28;20519;-60
2022/03/25 10:43:30;;;;;;;58.10;45.55;;;;;;;25.07;27.07;102514.94;15499728;28;20050;-59
2022/03/25 10:51:08;;;;;;;56.78;50.20;;;;;;;25.93;26.23;102525.22;15482142;28;20042;-59
2022/03/25 10:58:51;;;;;;;63.50;49.85;;;;;;;26.37;25.74;102523.13;15505936;28;20059;-60
2022/03/25 11:06:25;;;;;;;164.38;152.05;;;;;;;25.98;24.83;102510.56;15489910;28;20500;-62
2022/03/25 11:13:57;;;;;;;76.65;68.38;;;;;;;25.58;26.65;102500.78;15494138;28;20046;-63
2022/03/25 11:21:44;;;;;;;234.43;217.38;;;;;;;27.76;24.52;102508.50;15469597;28;20054;-60
2022/03/25 11:29:19;;;;;;;228.05;211.25;;;;;;;26.69;25.05;102502.47;15496078;28;20042;-60
2022/03/25 11:37:16;;;;;;;213.30;198.45;;;;;;;25.96;26.51;102495.84;15498167;28;20047;-61
2022/03/25 11:44:48;;;;;;;139.57;128.43;;;;;;;27.00;25.17;102501.75;15495608;28;20554;-60
2022/03/25 11:52:34;;;;;;;72.40;65.00;;;;;;;26.86;25.21;102495.97;15494713;28;20058;-60
2022/03/25 12:00:10;;;;;;;64.25;57.45;;;;;;;26.37;26.39;102482.25;15496118;28;20046;-60
2022/03/25 12:08:20;;;;;;;74.40;67.32;;;;;;;27.71;24.14;102477.34;15495150;28;20097;-62
2022/03/25 12:15:53;;;;;;;93.75;85.47;;;;;;;28.12;23.38;102469.13;15495307;28;20056;-62
2022/03/25 12:23:26;;;;;;;74.22;66.90;;;;;;;27.99;24.71;102460.13;15505982;28;20643;-58
2022/03/25 12:31:05;;;;;;;54.80;48.83;;;;;;;27.92;23.82;102457.25;15486515;28;20120;-61
2022/03/25 12:38:42;;;;;;;106.05;97.45;;;;;;;28.33;23.80;102445.31;15450090;28;20046;-62
2022/03/25 12:46:16;;;;;;;231.00;214.63;;;;;;;27.23;23.87;102443.31;15471537;28;20046;-60
2022/03/25 12:53:48;;;;;;;162.23;149.82;;;;;;;29.62;23.14;102443.41;15465507;28;20408;-61
2022/03/25 13:01:22;;;;;;;50.58;45.65;;;;;;;30.49;21.66;102435.53;15491080;28;20113;-62
2022/03/25 13:09:00;;;;;;;169.88;157.55;;;;;;;32.59;19.03;102426.28;15482949;28;20130;-62
2022/03/25 13:16:34;;;;;;;78.65;72.15;;;;;;;30.42;21.71;102425.72;15491914;28;20042;-64
2022/03/25 13:24:08;;;;;;;186.52;173.20;;;;;;;31.29;20.06;102427.03;15483139;28;20052;-62
2022/03/25 13:31:49;;;;;;;46.75;41.97;;;;;;;29.79;21.34;102413.63;15469590;28;20051;-63
2022/03/25 13:39:21;;;;;;;44.80;40.07;;;;;;;30.50;21.49;102414.13;15455126;28;20042;-64
2022/03/25 13:47:07;;;;;;;40.33;34.90;;;;;;;28.47;23.49;102396.47;15478167;28;20137;-62
2022/03/25 13:54:39;;;;;;;47.33;42.72;;;;;;;25.58;26.75;102386.44;15466684;28;20120;-62
2022/03/25 14:02:22;;;;;;;42.77;38.40;;;;;;;24.00;28.65;102367.97;15502290;28;20052;-62
2022/03/25 14:09:57;;;;;;;118.68;110.05;;;;;;;22.44;31.33;102378.22;15501585;28;20306;-60
2022/03/25 14:17:33;;;;;;;167.00;155.85;;;;;;;23.22;29.68;102368.31;15506349;28;20089;-58
2022/03/25 14:25:07;;;;;;;119.03;111.10;;;;;;;23.23;30.50;102360.59;15500855;28;20045;-59
2022/03/25 14:32:43;;;;;;;203.15;188.95;;;;;;;22.25;31.96;102359.13;15472261;28;20034;-61
2022/03/25 14:40:15;;;;;;;129.60;120.32;;;;;;;22.41;31.40;102350.53;15490262;28;20047;-60
2022/03/25 14:47:51;;;;;;;235.80;218.77;;;;;;;21.65;32.25;102347.19;15498508;28;20057;-59
2022/03/25 14:55:35;;;;;;;319.67;298.38;;;;;;;22.11;31.98;102341.78;15499501;28;20488;-60
2022/03/25 15:03:09;;;;;;;316.20;293.98;;;;;;;22.05;32.18;102334.69;15489042;28;20078;-60
2022/03/25 15:10:42;;;;;;;274.67;255.07;;;;;;;21.15;33.47;102325.22;15497032;28;20050;-61
2022/03/25 15:18:17;;;;;;;731.75;465.73;;;;;;;21.15;33.90;102316.72;15495951;28;20050;-62
2022/03/25 15:25:52;;;;;;;298.33;278.02;;;;;;;20.95;34.24;102310.16;15471324;28;20448;-60
2022/03/25 15:41:17;;;;;;;1572.72;817.80;;;;;;;19.95;35.12;102295.16;15471493;28;20047;-61
2022/03/25 15:48:51;;;;;;;1999.90;999.90;;;;;;;20.16;34.81;102293.78;15472865;28;20124;-62
2022/03/25 15:56:23;;;;;;;201.65;187.45;;;;;;;19.76;35.52;102290.16;15493642;28;20101;-60
2022/03/25 16:03:56;;;;;;;1119.72;611.58;;;;;;;20.13;34.76;102288.84;15486706;28;20504;-62
2022/03/25 16:11:28;;;;;;;204.43;190.77;;;;;;;19.86;35.47;102284.81;15466384;28;20081;-60
2022/03/25 16:19:03;;;;;;;1999.90;999.90;;;;;;;19.66;36.29;102279.31;15508515;28;20050;-62
2022/03/25 16:26:35;;;;;;;161.05;149.85;;;;;;;19.83;35.77;102293.19;15486389;28;20047;-63
2022/03/25 16:34:09;;;;;;;1999.90;999.90;;;;;;;19.68;36.49;102294.75;15486994;28;20146;-60
2022/03/25 16:41:41;;;;;;;139.35;129.23;;;;;;;19.29;36.64;102290.69;15480620;28;20149;-60
2022/03/25 16:49:15;;;;;;;1999.90;999.90;;;;;;;19.14;36.96;102280.88;15463305;28;20039;-61
2022/03/25 16:56:48;;;;;;;1999.90;999.90;;;;;;;19.14;36.94;102291.38;15488038;28;20034;-61
2022/03/25 17:04:22;;;;;;;1999.90;999.90;;;;;;;18.96;37.28;102291.59;15472092;28;20121;-62
2022/03/25 17:11:54;;;;;;;1999.90;999.90;;;;;;;18.74;38.00;102290.03;15479661;28;20060;-62
2022/03/25 17:19:29;;;;;;;1999.90;999.90;;;;;;;18.45;39.17;102296.69;15480716;28;20062;-61
2022/03/25 17:27:01;;;;;;;1999.90;999.90;;;;;;;18.22;39.19;102300.22;15494046;28;20046;-61
2022/03/25 17:34:34;;;;;;;1999.90;999.90;;;;;;;17.78;40.25;102300.59;15502182;28;20533;-61
2022/03/25 17:42:07;;;;;;;1999.90;999.90;;;;;;;17.51;40.78;102304.78;15487691;28;20043;-63
2022/03/25 17:49:40;;;;;;;1999.90;999.90;;;;;;;17.25;41.46;102310.56;15493467;28;20038;-61
2022/03/25 17:57:13;;;;;;;;;;;;;;;17.09;42.06;102311.47;15483940;28;20558;-59
2022/03/25 18:04:46;;;;;;;1999.90;999.90;;;;;;;16.72;42.35;102322.41;15444399;28;20484;-56
2022/03/25 18:12:18;;;;;;;;;;;;;;;16.55;43.30;102316.78;15485570;28;20407;-60
2022/03/25 18:19:52;;;;;;;1999.90;999.90;;;;;;;16.28;43.55;102323.63;15490713;28;19922;-60
2022/03/25 18:27:24;;;;;;;1999.90;999.90;;;;;;;16.03;43.99;102322.47;15495107;28;20038;-56
2022/03/25 18:34:57;;;;;;;1999.90;999.90;;;;;;;15.85;44.64;102332.91;15496745;28;20054;-61
2022/03/25 18:42:29;;;;;;;;;;;;;;;15.70;45.15;102339.00;15486189;28;20085;-61
2022/03/25 18:50:03;;;;;;;1999.90;999.90;;;;;;;15.38;45.74;102331.78;15503815;28;19983;-64
2022/03/25 18:57:35;;;;;;;1999.90;999.90;;;;;;;15.12;46.10;102342.97;15484819;28;20484;-61
2022/03/25 19:05:10;;;;;;;1999.90;999.90;;;;;;;14.99;46.66;102353.97;15473869;28;20531;-59
2022/03/25 19:12:42;;;;;;;1999.90;999.90;;;;;;;14.71;47.14;102361.78;15492905;28;20642;-64
2022/03/25 19:20:16;;;;;;;1999.90;999.90;;;;;;;14.54;47.74;102353.22;15494747;28;20046;-59
2022/03/25 19:27:49;;;;;;;1999.90;999.90;;;;;;;14.26;48.07;102360.91;15498719;28;20046;-59
2022/03/25 19:35:22;;;;;;;1999.90;999.90;;;;;;;14.02;48.72;102368.81;15496545;28;20055;-62
2022/03/25 19:43:00;;;;;;;1999.90;999.90;;;;;;;13.73;49.12;102361.59;15495951;28;20153;-62
2022/03/25 19:50:33;;;;;;;1999.90;999.90;;;;;;;13.58;49.71;102359.16;15462417;28;20039;-62
2022/03/25 19:58:05;;;;;;;1999.90;999.90;;;;;;;13.30;50.04;102363.94;15493672;28;20372;-64
2022/03/25 20:05:39;;;;;;;1999.90;999.90;;;;;;;12.99;50.46;102374.91;15495482;28;20574;-63
2022/03/25 20:13:12;;;;;;;1999.90;999.90;;;;;;;12.79;51.34;102364.06;15494001;28;20050;-62
2022/03/25 20:20:51;;;;;;;1999.90;999.90;;;;;;;12.58;51.55;102361.63;15493488;28;20491;-62
2022/03/25 20:28:29;;;;;;;1999.90;999.90;;;;;;;12.33;52.22;102365.72;15488690;28;20081;-64
2022/03/25 20:36:05;;;;;;;1999.90;999.90;;;;;;;12.27;52.56;102385.69;15489759;28;20070;-58
2022/03/25 20:43:37;;;;;;;1999.90;999.90;;;;;;;12.00;52.84;102378.84;15475131;28;20046;-62
2022/03/25 20:51:11;;;;;;;1999.90;999.90;;;;;;;11.81;53.84;102378.00;15488757;28;20665;-62
2022/03/25 20:58:44;;;;;;;1999.90;999.90;;;;;;;11.71;53.58;102378.94;15482484;28;20050;-63
2022/03/25 21:06:17;;;;;;;1999.90;999.90;;;;;;;11.65;53.54;102382.09;15506748;28;20101;-63
2022/03/25 21:13:55;;;;;;;1999.90;999.90;;;;;;;11.38;54.61;102377.13;15515676;28;20082;-62
2022/03/25 21:21:29;;;;;;;1999.90;999.90;;;;;;;11.22;54.99;102394.06;15514397;28;20050;-61
2022/03/25 21:29:01;;;;;;;;;;;;;;;11.16;55.04;102395.28;15514900;28;20135;-60
2022/03/25 21:36:35;;;;;;;1999.90;999.90;;;;;;;11.01;55.55;102391.78;15513911;28;19925;-60
2022/03/25 21:44:08;;;;;;;1999.90;999.90;;;;;;;10.97;55.68;102388.78;15514523;28;20130;-59
2022/03/25 21:51:41;;;;;;;1999.90;999.90;;;;;;;10.84;55.83;102395.06;15502988;28;20119;-62
2022/03/25 21:59:14;;;;;;;1999.90;999.90;;;;;;;10.74;56.30;102381.19;15483067;28;20053;-60
2022/03/25 22:06:48;;;;;;;1999.90;999.90;;;;;;;10.65;56.21;102375.41;15471389;28;20056;-60
2022/03/25 22:14:20;;;;;;;1999.90;999.90;;;;;;;10.48;56.56;102377.78;15488719;28;20058;-62
2022/03/25 22:21:54;;;;;;;1999.90;999.90;;;;;;;10.41;56.66;102384.53;15497785;28;20113;-61
2022/03/25 22:29:26;;;;;;;1999.90;999.90;;;;;;;10.30;57.30;102370.94;15509583;28;20038;-59
2022/03/25 22:36:59;;;;;;;1999.90;999.90;;;;;;;10.24;57.45;102377.72;15493190;28;20534;-60
2022/03/25 22:44:31;;;;;;;1999.90;999.90;;;;;;;10.15;57.91;102376.63;15499685;28;20586;-60
2022/03/25 22:52:07;;;;;;;1999.90;999.90;;;;;;;10.07;58.14;102370.53;15501108;28;20647;-59
2022/03/25 22:59:39;;;;;;;1999.90;999.90;;;;;;;9.86;58.53;102376.53;15500780;28;20078;-61
2022/03/25 23:07:14;;;;;;;1999.90;999.90;;;;;;;9.76;58.79;102374.63;15501379;28;20061;-62
2022/03/25 23:14:47;;;;;;;1999.90;999.90;;;;;;;9.61;59.28;102374.72;15502925;28;20042;-61
2022/03/25 23:22:20;;;;;;;1999.90;999.90;;;;;;;9.65;58.98;102365.50;15502166;28;20043;-62
2022/03/25 23:29:54;;;;;;;1999.90;999.90;;;;;;;9.58;59.51;102355.75;15481811;28;20042;-61
2022/03/25 23:37:28;;;;;;;1999.90;999.90;;;;;;;9.43;59.61;102370.63;15502056;28;20046;-60
2022/03/25 23:45:00;;;;;;;1999.90;999.90;;;;;;;9.26;60.04;102363.44;15500147;28;20077;-61
2022/03/25 23:52:33;;;;;;;1999.90;999.90;;;;;;;9.17;60.38;102367.94;15498915;28;20050;-62
